Main page
METAR-TAF:

METAR-TAF

Airports :

Namibe Airport

Namibe, Angola

latitude: 15-15-40S, longitude: 12-08-50E, elevation: 64 m

Current weather observation

The report was made 2 hours and 54 minutes ago, at 18:00 UTC
Wind 13 kt from the West/Southwest
Temperature 17°C
Humidity 82%
Pressure 1013 hPa
Visibility 10 km or more
Few clouds at a height of 1000 ft

METAR: FNMO 251800Z 24013KT 9999 FEW010 17/14 Q1013

Time: 21:54 (20:54 UTC)

Forecast

The report was made 9 hours and 54 minutes ago, at 11:00 UTC
Forecast valid from 25 at 12 UTC to 25 at 24 UTC
Wind 10 kt from the West/Southwest
Visibility 10 km or more
Few clouds at a height of 2000 ft
Temporary
from 25 at 13 UTC to 25 at 17 UTC
Wind 8 kt from the West/Southwest
Visibility: 9000 m

TAF: FNMO 251100Z 2512/2524 25010KT 9999 FEW020 TEMPO 2513/2517 25008KT 9000 NSC

Weather observations and forecasts of more than 4000 airports (METAR and TAF reports).

The available stations are represented by yellow and red dots on the map.

Hover mouse over dot to see the name of the station.

Then click to see weather observations and forecasts.

To change the map : click on the green buttons with a black cross to zoom in, on the green button with a dash to zoom out, or on the green arrows for adjacent maps.


METAR-TAF: